Heyuan, China
Current Conditions -  °F | °C
As of 2:00 AM on Friday 30 Jan 2015 (Local Time) from ZGGG Reporting Station
Clear Clear  
Wind Chill: 54°   Ceiling: Unl
Heat Index: 54°   Visibility: 6mi
Dew Point: 46°   Wind: 13mph
Humidity: 77%   Direction: 330°NNW
Pressure: 30.12"   Gusts: NA
Location:  23.73°N, 114.68°E
Report Text: ZGGG 291800Z 33006MPS 9000 NSC 12/08 Q1020 NOSIG
Loading
Personal Weather Stations






























Interactive Weather Map New forecast layout! Learn more

10-Day Weather Forecast

Advertisements
Track Severe Weather on mobile